Time;durP1;ratioP1;P1;durP2;ratioP2;P2;SDS_P1;SDS_P2;PMS_P1;PMS_P2;Temp;Humidity;BMP_temperature;BMP_pressure;BME280_temperature;BME280_humidity;BME280_pressure;Samples;Min_cycle;Max_cycle;Signal;HPM_P1;HPM_P2
2021/10/27 00:01:24;;;;;;;0.40;0.40;;;;;;;;;;5050672;28;20426;-66
2021/10/27 00:03:50;;;;;;;0.40;0.40;;;;;;;;;;5050652;28;21132;-67
2021/10/27 00:06:16;;;;;;;0.40;0.40;;;;;;;;;;5051957;28;20976;-66
2021/10/27 00:08:42;;;;;;;0.40;0.40;;;;;;;;;;5052077;28;20407;-67
2021/10/27 00:11:08;;;;;;;0.40;0.40;;;;;;;;;;5051596;28;20247;-67
2021/10/27 00:13:34;;;;;;;0.40;0.40;;;;;;;;;;5051802;28;20172;-67
2021/10/27 00:16:02;;;;;;;0.40;0.40;;;;;;;;;;5051983;28;20406;-66
2021/10/27 00:18:29;;;;;;;0.40;0.40;;;;;;;;;;5051846;28;20488;-67
2021/10/27 00:20:55;;;;;;;0.40;0.40;;;;;;;;;;5051636;28;20171;-66
2021/10/27 00:23:20;;;;;;;0.40;0.40;;;;;;;;;;5050618;28;20180;-66
2021/10/27 00:25:46;;;;;;;0.40;0.40;;;;;;;;;;5051485;28;20422;-66
2021/10/27 00:28:12;;;;;;;0.40;0.40;;;;;;;;;;5051659;28;20414;-66
2021/10/27 00:30:38;;;;;;;0.40;0.40;;;;;;;;;;5051452;28;20452;-66
2021/10/27 00:33:04;;;;;;;0.40;0.40;;;;;;;;;;5051678;28;20414;-66
2021/10/27 00:35:30;;;;;;;0.40;0.40;;;;;;;;;;5051507;28;20428;-67
2021/10/27 00:37:56;;;;;;;0.40;0.40;;;;;;;;;;5050276;28;20270;-67
2021/10/27 00:40:22;;;;;;;0.32;0.32;;;;;;;;;;5051124;28;20273;-66
2021/10/27 00:42:49;;;;;;;0.40;0.40;;;;;;;;;;5051521;28;20663;-66
2021/10/27 00:45:15;;;;;;;0.40;0.40;;;;;;;;;;5051404;28;20452;-67
2021/10/27 00:47:41;;;;;;;0.40;0.40;;;;;;;;;;5051830;28;20677;-66
2021/10/27 00:50:07;;;;;;;0.40;0.40;;;;;;;;;;5058065;28;20804;-66
2021/10/27 00:52:34;;;;;;;0.40;0.40;;;;;;;;;;5058039;28;20397;-66
2021/10/27 00:54:59;;;;;;;0.40;0.40;;;;;;;;;;5057998;28;20190;-66
2021/10/27 00:57:26;;;;;;;0.40;0.40;;;;;;;;;;5058055;28;20178;-67
2021/10/27 00:59:52;;;;;;;0.40;0.40;;;;;;;;;;5058061;28;20402;-66
2021/10/27 01:02:18;;;;;;;0.40;0.40;;;;;;;;;;5058047;28;20179;-66
2021/10/27 01:04:46;;;;;;;0.40;0.40;;;;;;;;;;5056580;28;20203;-67
2021/10/27 01:07:12;;;;;;;0.40;0.40;;;;;;;;;;5057988;28;20544;-66
2021/10/27 01:09:38;;;;;;;0.30;0.30;;;;;;;;;;5057417;28;20175;-66
2021/10/27 01:12:05;;;;;;;0.40;0.40;;;;;;;;;;5058110;28;20436;-67
2021/10/27 01:14:38;;;;;;;0.40;0.40;;;;;;;;;;5058721;28;20708;-66
2021/10/27 01:17:05;;;;;;;0.40;0.40;;;;;;;;;;5057802;28;20176;-64
2021/10/27 01:19:51;;;;;;;0.40;0.40;;;;;;;;;;5056626;28;20183;-64
2021/10/27 01:22:18;;;;;;;0.40;0.40;;;;;;;;;;5057397;28;20621;-64
2021/10/27 01:24:44;;;;;;;0.40;0.40;;;;;;;;;;5057668;28;20674;-64
2021/10/27 01:27:10;;;;;;;0.40;0.40;;;;;;;;;;5057720;28;20202;-65
2021/10/27 01:29:36;;;;;;;0.40;0.40;;;;;;;;;;5056497;28;20438;-65
2021/10/27 01:32:03;;;;;;;0.30;0.30;;;;;;;;;;5057558;28;20179;-66
2021/10/27 01:34:29;;;;;;;0.40;0.40;;;;;;;;;;5057705;28;20675;-66
2021/10/27 01:36:55;;;;;;;0.40;0.40;;;;;;;;;;5057589;28;20186;-65
2021/10/27 01:39:21;;;;;;;0.40;0.40;;;;;;;;;;5057702;28;20184;-65
2021/10/27 01:41:47;;;;;;;0.40;0.40;;;;;;;;;;5057480;28;20502;-65
2021/10/27 01:44:12;;;;;;;0.40;0.40;;;;;;;;;;5057593;28;20436;-65
2021/10/27 01:46:39;;;;;;;0.40;0.40;;;;;;;;;;5057540;28;20496;-65
2021/10/27 01:49:07;;;;;;;0.40;0.40;;;;;;;;;;5057649;28;20414;-66
2021/10/27 01:51:33;;;;;;;0.40;0.40;;;;;;;;;;5057298;28;20293;-65
2021/10/27 01:54:00;;;;;;;0.40;0.40;;;;;;;;;;5057437;28;20720;-65
2021/10/27 01:56:26;;;;;;;0.40;0.40;;;;;;;;;;5057648;28;20703;-65
2021/10/27 01:58:52;;;;;;;0.40;0.40;;;;;;;;;;5057640;28;20176;-65
2021/10/27 02:01:18;;;;;;;0.40;0.40;;;;;;;;;;5053514;28;20181;-65
2021/10/27 02:03:45;;;;;;;0.40;0.40;;;;;;;;;;5054220;28;20200;-66
2021/10/27 02:06:11;;;;;;;0.40;0.40;;;;;;;;;;5054187;28;20200;-65
2021/10/27 02:08:38;;;;;;;0.40;0.40;;;;;;;;;;5054143;28;20257;-66
2021/10/27 02:11:04;;;;;;;0.50;0.50;;;;;;;;;;5053944;28;20174;-65
2021/10/27 02:13:30;;;;;;;0.30;0.30;;;;;;;;;;5053816;28;20179;-65
2021/10/27 02:15:56;;;;;;;0.40;0.40;;;;;;;;;;5054147;28;20409;-65
2021/10/27 02:18:22;;;;;;;0.40;0.40;;;;;;;;;;5054013;28;20233;-65
2021/10/27 02:20:48;;;;;;;0.40;0.40;;;;;;;;;;5053721;28;20183;-65
2021/10/27 02:23:14;;;;;;;0.30;0.30;;;;;;;;;;5053945;28;20460;-65
2021/10/27 02:25:40;;;;;;;0.35;0.35;;;;;;;;;;5053678;28;20199;-65
2021/10/27 02:28:06;;;;;;;0.40;0.40;;;;;;;;;;5052576;28;20703;-65
2021/10/27 02:30:34;;;;;;;0.40;0.40;;;;;;;;;;5053602;28;20414;-66
2021/10/27 02:33:00;;;;;;;0.40;0.40;;;;;;;;;;5053679;28;20253;-65
2021/10/27 02:35:26;;;;;;;0.40;0.40;;;;;;;;;;5053766;28;20195;-65
2021/10/27 02:37:52;;;;;;;0.40;0.40;;;;;;;;;;5053639;28;20203;-65
2021/10/27 02:40:18;;;;;;;0.40;0.40;;;;;;;;;;5053353;28;20892;-65
2021/10/27 02:42:44;;;;;;;0.40;0.40;;;;;;;;;;5053586;28;20406;-65
2021/10/27 02:45:11;;;;;;;0.40;0.40;;;;;;;;;;5053489;28;20277;-65
2021/10/27 02:47:37;;;;;;;0.40;0.40;;;;;;;;;;5053181;28;20196;-65
2021/10/27 02:50:04;;;;;;;0.40;0.40;;;;;;;;;;5053426;28;20199;-65
2021/10/27 02:52:30;;;;;;;0.35;0.35;;;;;;;;;;5053379;28;20168;-65
2021/10/27 02:54:56;;;;;;;0.40;0.40;;;;;;;;;;5053260;28;20192;-65
2021/10/27 02:57:22;;;;;;;0.40;0.40;;;;;;;;;;5053375;28;20414;-65
2021/10/27 02:59:48;;;;;;;0.40;0.40;;;;;;;;;;5053227;28;20964;-66
2021/10/27 03:02:14;;;;;;;0.40;0.40;;;;;;;;;;5051649;28;20263;-65
2021/10/27 03:04:40;;;;;;;0.40;0.40;;;;;;;;;;5053070;28;20488;-65
2021/10/27 03:07:06;;;;;;;0.40;0.40;;;;;;;;;;5053067;28;20493;-65
2021/10/27 03:09:32;;;;;;;0.40;0.40;;;;;;;;;;5053119;28;20411;-65
2021/10/27 03:11:58;;;;;;;0.40;0.40;;;;;;;;;;5051876;28;20410;-65
2021/10/27 03:14:24;;;;;;;0.40;0.40;;;;;;;;;;5052941;28;20521;-65
2021/10/27 03:16:49;;;;;;;0.40;0.40;;;;;;;;;;5041102;28;20449;-65
2021/10/27 03:19:16;;;;;;;0.40;0.40;;;;;;;;;;5032653;28;20465;-66
2021/10/27 03:21:42;;;;;;;0.40;0.40;;;;;;;;;;5032771;28;20426;-65
2021/10/27 03:24:08;;;;;;;0.40;0.40;;;;;;;;;;5032594;28;20199;-66
2021/10/27 03:26:34;;;;;;;0.40;0.40;;;;;;;;;;5032250;28;20199;-66
2021/10/27 03:29:00;;;;;;;0.40;0.40;;;;;;;;;;5032536;28;20450;-65
2021/10/27 03:31:26;;;;;;;0.40;0.40;;;;;;;;;;5032175;28;20508;-65
2021/10/27 03:33:52;;;;;;;0.40;0.40;;;;;;;;;;5032522;28;20442;-66
2021/10/27 03:36:19;;;;;;;0.40;0.40;;;;;;;;;;5032019;28;20426;-65
2021/10/27 03:38:45;;;;;;;0.40;0.40;;;;;;;;;;5032679;28;20413;-65
2021/10/27 03:41:13;;;;;;;0.40;0.40;;;;;;;;;;5032050;28;20180;-65
2021/10/27 03:43:39;;;;;;;0.40;0.40;;;;;;;;;;5032016;28;20420;-65
2021/10/27 03:46:05;;;;;;;0.40;0.40;;;;;;;;;;5031573;28;20215;-66
2021/10/27 03:48:31;;;;;;;0.45;0.45;;;;;;;;;;5032454;28;20411;-66
2021/10/27 03:50:57;;;;;;;0.40;0.40;;;;;;;;;;5031998;28;20577;-66
2021/10/27 03:53:23;;;;;;;0.40;0.40;;;;;;;;;;5032348;28;20186;-68
2021/10/27 03:55:49;;;;;;;0.40;0.40;;;;;;;;;;5031906;28;20426;-67
2021/10/27 03:58:15;;;;;;;0.40;0.40;;;;;;;;;;5032287;28;20194;-67
2021/10/27 04:00:41;;;;;;;0.40;0.40;;;;;;;;;;5031495;28;20187;-67
2021/10/27 04:03:07;;;;;;;0.40;0.40;;;;;;;;;;5031772;28;20424;-67
2021/10/27 04:05:34;;;;;;;0.40;0.40;;;;;;;;;;5032203;28;20788;-67
2021/10/27 04:08:00;;;;;;;0.40;0.40;;;;;;;;;;5031804;28;20277;-65
2021/10/27 04:10:26;;;;;;;0.40;0.40;;;;;;;;;;5031853;28;20174;-66
2021/10/27 04:12:52;;;;;;;0.40;0.40;;;;;;;;;;5032051;28;20272;-66
2021/10/27 04:15:18;;;;;;;0.40;0.40;;;;;;;;;;5031269;28;20467;-66
2021/10/27 04:17:44;;;;;;;0.40;0.40;;;;;;;;;;5031688;28;20178;-65
2021/10/27 04:20:10;;;;;;;0.40;0.40;;;;;;;;;;5030487;28;20414;-66
2021/10/27 04:22:38;;;;;;;0.40;0.40;;;;;;;;;;5031828;28;20468;-66
2021/10/27 04:25:05;;;;;;;0.40;0.40;;;;;;;;;;5031796;28;20629;-65
2021/10/27 04:27:32;;;;;;;0.40;0.40;;;;;;;;;;5032207;28;20210;-65
2021/10/27 04:29:58;;;;;;;0.40;0.40;;;;;;;;;;5032791;28;20222;-66
2021/10/27 04:32:24;;;;;;;0.40;0.40;;;;;;;;;;5031761;28;20183;-67
2021/10/27 04:34:50;;;;;;;0.50;0.50;;;;;;;;;;5031821;28;20462;-67
2021/10/27 04:37:16;;;;;;;0.40;0.40;;;;;;;;;;5031555;28;20504;-67
2021/10/27 04:39:42;;;;;;;0.40;0.40;;;;;;;;;;5031763;28;20262;-67
2021/10/27 04:42:08;;;;;;;0.40;0.40;;;;;;;;;;5030598;28;20407;-67
2021/10/27 04:44:34;;;;;;;0.40;0.40;;;;;;;;;;5031242;28;20294;-67
2021/10/27 04:47:03;;;;;;;0.40;0.40;;;;;;;;;;5031679;28;20413;-67
2021/10/27 04:49:29;;;;;;;0.40;0.40;;;;;;;;;;5031603;28;20404;-67
2021/10/27 04:51:55;;;;;;;0.40;0.40;;;;;;;;;;5031338;28;20262;-67
2021/10/27 04:54:21;;;;;;;0.40;0.40;;;;;;;;;;5031493;28;20241;-67
2021/10/27 04:56:48;;;;;;;0.40;0.40;;;;;;;;;;5031347;28;20639;-67
2021/10/27 04:59:14;;;;;;;0.40;0.40;;;;;;;;;;5031446;28;20418;-67
2021/10/27 05:01:42;;;;;;;0.40;0.40;;;;;;;;;;5031249;28;20179;-67
2021/10/27 05:04:08;;;;;;;0.40;0.40;;;;;;;;;;5031322;28;20926;-67
2021/10/27 05:06:35;;;;;;;0.40;0.40;;;;;;;;;;5031301;28;20541;-67
2021/10/27 05:09:01;;;;;;;0.40;0.40;;;;;;;;;;5031650;28;20168;-67
2021/10/27 05:11:27;;;;;;;0.40;0.40;;;;;;;;;;5031311;28;20179;-67
2021/10/27 05:13:53;;;;;;;0.40;0.40;;;;;;;;;;5031122;28;20527;-67
2021/10/27 05:16:19;;;;;;;0.40;0.40;;;;;;;;;;5031404;28;20540;-67
2021/10/27 05:18:45;;;;;;;0.50;0.50;;;;;;;;;;5030074;28;20270;-67
2021/10/27 05:21:11;;;;;;;0.50;0.50;;;;;;;;;;5031116;28;20215;-67
2021/10/27 05:23:37;;;;;;;0.40;0.40;;;;;;;;;;5031216;28;20419;-67
2021/10/27 05:26:04;;;;;;;0.40;0.40;;;;;;;;;;5031032;28;20468;-67
2021/10/27 05:28:30;;;;;;;0.40;0.40;;;;;;;;;;5031312;28;20465;-67
2021/10/27 05:30:56;;;;;;;0.40;0.40;;;;;;;;;;5030970;28;20170;-67
2021/10/27 05:33:22;;;;;;;0.40;0.40;;;;;;;;;;5031320;28;20406;-67
2021/10/27 05:35:48;;;;;;;0.40;0.40;;;;;;;;;;5032898;28;20195;-67
2021/10/27 05:38:14;;;;;;;0.40;0.40;;;;;;;;;;5034938;28;20517;-67
2021/10/27 05:40:40;;;;;;;0.40;0.40;;;;;;;;;;5034583;28;20172;-67
2021/10/27 05:43:10;;;;;;;0.40;0.40;;;;;;;;;;5034838;28;20179;-67
2021/10/27 05:45:37;;;;;;;0.40;0.40;;;;;;;;;;5034832;28;20806;-67
2021/10/27 05:48:03;;;;;;;0.40;0.40;;;;;;;;;;5034654;28;20210;-67
2021/10/27 05:50:37;;;;;;;0.40;0.40;;;;;;;;;;5034450;28;20538;-67
2021/10/27 05:55:48;;;;;;;0.40;0.40;;;;;;;;;;5034571;28;20579;-67
2021/10/27 05:58:14;;;;;;;0.50;0.50;;;;;;;;;;5034575;28;20180;-67
2021/10/27 06:00:41;;;;;;;0.40;0.40;;;;;;;;;;5033102;28;20176;-67
2021/10/27 06:03:07;;;;;;;0.30;0.30;;;;;;;;;;5034439;28;20176;-67
2021/10/27 06:05:33;;;;;;;0.40;0.40;;;;;;;;;;5034209;28;20196;-67
2021/10/27 06:08:00;;;;;;;0.40;0.40;;;;;;;;;;5034309;28;20287;-67
2021/10/27 06:10:26;;;;;;;0.40;0.40;;;;;;;;;;5034154;28;20789;-67
2021/10/27 06:12:56;;;;;;;0.40;0.40;;;;;;;;;;5033004;28;20175;-67
2021/10/27 06:15:23;;;;;;;0.30;0.30;;;;;;;;;;5034109;28;20203;-67
2021/10/27 06:17:49;;;;;;;0.30;0.30;;;;;;;;;;5033827;28;20171;-66
2021/10/27 06:20:15;;;;;;;0.40;0.40;;;;;;;;;;5052982;28;20194;-67
2021/10/27 06:22:41;;;;;;;0.40;0.40;;;;;;;;;;5054050;28;20268;-65
2021/10/27 06:25:09;;;;;;;0.40;0.40;;;;;;;;;;5053791;28;20432;-64
2021/10/27 06:27:35;;;;;;;0.40;0.40;;;;;;;;;;5052601;28;20309;-65
2021/10/27 06:30:10;;;;;;;0.40;0.40;;;;;;;;;;5053912;28;20176;-64
2021/10/27 06:35:15;;;;;;;0.40;0.40;;;;;;;;;;5053628;28;20743;-67
2021/10/27 06:48:21;;;;;;;0.40;0.40;;;;;;;;;;5053596;28;20210;-65
2021/10/27 06:50:48;;;;;;;0.40;0.40;;;;;;;;;;5053598;28;20200;-65
2021/10/27 06:53:14;;;;;;;0.40;0.40;;;;;;;;;;5053554;28;20223;-65
2021/10/27 06:55:40;;;;;;;0.40;0.40;;;;;;;;;;5053210;28;20195;-65
2021/10/27 06:58:08;;;;;;;0.40;0.40;;;;;;;;;;5053426;28;20866;-65
2021/10/27 07:00:41;;;;;;;0.40;0.40;;;;;;;;;;5053111;28;20182;-65
2021/10/27 07:04:00;;;;;;;0.40;0.40;;;;;;;;;;5053496;28;20204;-65
2021/10/27 07:16:51;;;;;;;0.40;0.40;;;;;;;;;;5053007;28;20274;-66
2021/10/27 07:19:17;;;;;;;0.40;0.40;;;;;;;;;;5052790;28;20180;-65
2021/10/27 07:21:43;;;;;;;0.40;0.40;;;;;;;;;;5052313;28;20766;-66
2021/10/27 07:24:09;;;;;;;0.40;0.40;;;;;;;;;;5052695;28;20988;-66
2021/10/27 07:26:37;;;;;;;0.40;0.40;;;;;;;;;;5052680;28;20893;-65
2021/10/27 07:29:03;;;;;;;0.40;0.40;;;;;;;;;;5052735;28;20395;-66
2021/10/27 07:31:30;;;;;;;0.40;0.40;;;;;;;;;;5052447;28;20164;-66
2021/10/27 07:34:06;;;;;;;0.40;0.40;;;;;;;;;;5052499;28;20214;-66
2021/10/27 07:41:55;;;;;;;0.40;0.40;;;;;;;;;;5052351;28;20186;-65
2021/10/27 07:44:22;;;;;;;0.40;0.40;;;;;;;;;;5050908;28;20195;-65
2021/10/27 07:46:48;;;;;;;0.40;0.40;;;;;;;;;;5052373;28;20457;-66
2021/10/27 07:49:14;;;;;;;0.40;0.40;;;;;;;;;;5050993;28;20179;-66
2021/10/27 07:51:41;;;;;;;0.40;0.40;;;;;;;;;;5050821;28;20179;-65
2021/10/27 07:54:07;;;;;;;0.40;0.40;;;;;;;;;;5052248;28;20194;-66
2021/10/27 07:56:33;;;;;;;0.40;0.40;;;;;;;;;;5051517;28;20606;-66
2021/10/27 07:59:02;;;;;;;0.40;0.40;;;;;;;;;;5051621;28;20606;-66
2021/10/27 08:01:28;;;;;;;0.40;0.40;;;;;;;;;;5051949;28;20184;-66
2021/10/27 08:03:54;;;;;;;0.40;0.40;;;;;;;;;;5052085;28;20195;-66
2021/10/27 08:06:20;;;;;;;0.40;0.40;;;;;;;;;;5052134;28;20630;-66
2021/10/27 08:08:46;;;;;;;0.40;0.40;;;;;;;;;;5052033;28;20180;-66
2021/10/27 08:11:14;;;;;;;0.40;0.40;;;;;;;;;;5051704;28;20409;-66
2021/10/27 08:13:40;;;;;;;0.40;0.40;;;;;;;;;;5051637;28;20663;-66
2021/10/27 08:16:06;;;;;;;0.40;0.40;;;;;;;;;;5051845;28;20179;-66
2021/10/27 08:18:32;;;;;;;0.40;0.40;;;;;;;;;;5051965;28;20602;-67
2021/10/27 08:20:58;;;;;;;0.40;0.40;;;;;;;;;;5051792;28;20299;-66
2021/10/27 08:23:29;;;;;;;0.40;0.40;;;;;;;;;;5051799;28;20406;-67
2021/10/27 08:25:57;;;;;;;0.40;0.40;;;;;;;;;;5051688;28;20402;-66
2021/10/27 08:28:37;;;;;;;0.40;0.40;;;;;;;;;;5050393;28;20183;-66
2021/10/27 08:31:09;;;;;;;0.40;0.40;;;;;;;;;;5051570;28;20543;-66
2021/10/27 08:33:48;;;;;;;0.40;0.40;;;;;;;;;;5051615;28;20643;-66
2021/10/27 08:36:14;;;;;;;0.40;0.40;;;;;;;;;;5050824;28;20198;-66
2021/10/27 08:38:40;;;;;;;0.40;0.40;;;;;;;;;;5051601;28;20176;-66
2021/10/27 08:41:06;;;;;;;0.40;0.40;;;;;;;;;;5051284;28;20406;-67
2021/10/27 08:43:33;;;;;;;0.40;0.40;;;;;;;;;;5051492;28;20462;-67
2021/10/27 08:46:01;;;;;;;0.40;0.40;;;;;;;;;;5050212;28;20430;-66
2021/10/27 08:48:28;;;;;;;0.40;0.40;;;;;;;;;;5051520;28;20562;-66
2021/10/27 08:50:54;;;;;;;0.40;0.40;;;;;;;;;;5051175;28;20176;-65
2021/10/27 08:53:23;;;;;;;0.40;0.40;;;;;;;;;;5051605;28;20179;-66
2021/10/27 08:55:50;;;;;;;0.38;0.38;;;;;;;;;;5051405;28;20434;-66
2021/10/27 08:58:30;;;;;;;0.40;0.40;;;;;;;;;;5051394;28;20167;-66
2021/10/27 09:05:58;;;;;;;0.30;0.30;;;;;;;;;;5051497;28;20180;-65
2021/10/27 09:17:06;;;;;;;0.30;0.30;;;;;;;;;;5023820;28;20444;-66
2021/10/27 09:39:39;;;;;;;0.30;0.30;;;;;;;;;;5055065;28;20405;-66
2021/10/27 09:55:24;;;;;;;0.30;0.30;;;;;;;;;;5054911;28;20440;-66
2021/10/27 09:56:38;;;;;;;0.30;0.30;;;;;;;;;;4992990;28;20492;-66
2021/10/27 10:04:38;;;;;;;0.30;0.30;;;;;;;;;;5054357;28;20421;-66
2021/10/27 10:07:06;;;;;;;0.30;0.30;;;;;;;;;;5054465;28;20862;-66
2021/10/27 10:09:37;;;;;;;0.30;0.30;;;;;;;;;;5054551;28;20375;-64
2021/10/27 10:12:03;;;;;;;0.30;0.30;;;;;;;;;;5054067;28;20928;-65
2021/10/27 10:14:29;;;;;;;0.30;0.30;;;;;;;;;;5053958;28;20456;-66
2021/10/27 10:16:57;;;;;;;0.30;0.30;;;;;;;;;;5054253;28;20420;-65
2021/10/27 10:19:32;;;;;;;0.30;0.30;;;;;;;;;;5054229;28;20413;-65
2021/10/27 10:21:58;;;;;;;0.30;0.30;;;;;;;;;;5052727;28;20396;-65
2021/10/27 10:26:51;;;;;;;0.30;0.30;;;;;;;;;;5053713;28;20512;-65
2021/10/27 10:29:41;;;;;;;0.30;0.30;;;;;;;;;;5053923;28;20497;-65
2021/10/27 10:32:20;;;;;;;0.30;0.20;;;;;;;;;;5053833;28;20399;-65
2021/10/27 10:34:50;;;;;;;0.30;0.30;;;;;;;;;;5053587;28;20422;-65
2021/10/27 10:37:30;;;;;;;0.30;0.30;;;;;;;;;;5052199;28;20992;-65
2021/10/27 10:39:59;;;;;;;0.20;0.20;;;;;;;;;;5053838;28;20519;-65
2021/10/27 10:45:45;;;;;;;0.30;0.30;;;;;;;;;;5053711;28;21028;-67
2021/10/27 10:59:58;;;;;;;0.20;0.20;;;;;;;;;;5053422;28;20901;-64
2021/10/27 11:02:48;;;;;;;0.20;0.20;;;;;;;;;;5052946;28;20414;-64
2021/10/27 11:25:04;;;;;;;0.20;0.20;;;;;;;;;;5052897;28;20454;-65
2021/10/27 11:40:45;;;;;;;0.20;0.20;;;;;;;;;;5052463;28;20418;-66
2021/10/27 11:45:59;;;;;;;0.20;0.20;;;;;;;;;;5052451;28;20428;-65
2021/10/27 11:51:09;;;;;;;0.20;0.20;;;;;;;;;;5052305;28;20490;-65
2021/10/27 11:53:35;;;;;;;0.20;0.20;;;;;;;;;;5052316;28;20395;-65
2021/10/27 11:56:12;;;;;;;0.20;0.20;;;;;;;;;;5052116;28;20744;-65
2021/10/27 11:58:40;;;;;;;0.20;0.20;;;;;;;;;;5052088;28;20482;-65
2021/10/27 12:01:07;;;;;;;0.20;0.20;;;;;;;;;;5050710;28;20394;-65
2021/10/27 12:03:40;;;;;;;0.20;0.20;;;;;;;;;;5052017;28;20362;-65
2021/10/27 12:06:14;;;;;;;0.30;0.30;;;;;;;;;;5052248;28;20747;-65
2021/10/27 12:11:30;;;;;;;0.20;0.20;;;;;;;;;;5051678;28;20377;-65
2021/10/27 12:14:15;;;;;;;0.20;0.20;;;;;;;;;;5051882;28;20451;-65
2021/10/27 12:19:39;;;;;;;0.20;0.20;;;;;;;;;;5051747;28;20411;-65
2021/10/27 12:22:07;;;;;;;0.30;0.30;;;;;;;;;;5049646;28;20426;-65
2021/10/27 12:24:34;;;;;;;0.20;0.20;;;;;;;;;;5051867;28;20488;-65
2021/10/27 12:27:07;;;;;;;0.20;0.20;;;;;;;;;;5051766;28;20457;-65
2021/10/27 12:29:34;;;;;;;0.20;0.20;;;;;;;;;;5051720;28;20406;-65
2021/10/27 12:32:09;;;;;;;0.20;0.20;;;;;;;;;;5051456;28;20409;-66
2021/10/27 12:34:36;;;;;;;0.20;0.20;;;;;;;;;;5051691;28;20397;-66
2021/10/27 12:37:18;;;;;;;0.20;0.20;;;;;;;;;;5051781;28;20552;-66
2021/10/27 12:39:46;;;;;;;0.20;0.20;;;;;;;;;;5051556;28;20904;-65
2021/10/27 12:42:13;;;;;;;0.20;0.20;;;;;;;;;;5051255;28;20411;-65
2021/10/27 12:44:50;;;;;;;0.30;0.30;;;;;;;;;;5051286;28;20826;-65
2021/10/27 12:47:21;;;;;;;0.20;0.20;;;;;;;;;;5051377;28;20461;-66
2021/10/27 12:49:48;;;;;;;0.20;0.20;;;;;;;;;;5051547;28;20445;-65
2021/10/27 12:52:26;;;;;;;0.20;0.20;;;;;;;;;;5051287;28;20381;-66
2021/10/27 12:55:12;;;;;;;0.20;0.20;;;;;;;;;;5051090;28;20472;-65
2021/10/27 12:57:49;;;;;;;0.30;0.30;;;;;;;;;;5051391;28;20810;-66
2021/10/27 13:00:32;;;;;;;0.20;0.20;;;;;;;;;;5051124;28;20428;-65
2021/10/27 13:06:34;;;;;;;0.20;0.20;;;;;;;;;;5027790;28;20407;-65
2021/10/27 13:11:36;;;;;;;0.20;0.20;;;;;;;;;;5050908;28;20405;-65
2021/10/27 13:30:17;;;;;;;0.30;0.30;;;;;;;;;;5050927;28;20371;-65
2021/10/27 13:32:50;;;;;;;0.27;0.27;;;;;;;;;;5050882;28;20886;-66
2021/10/27 13:35:16;;;;;;;0.20;0.20;;;;;;;;;;5051002;28;20404;-65
2021/10/27 13:37:43;;;;;;;0.20;0.20;;;;;;;;;;5051050;28;20816;-65
2021/10/27 13:40:10;;;;;;;0.30;0.30;;;;;;;;;;5050829;28;20739;-65
2021/10/27 13:59:11;;;;;;;0.30;0.30;;;;;;;;;;5054765;28;20396;-66
2021/10/27 14:07:42;;;;;;;0.30;0.30;;;;;;;;;;5054862;28;20631;-65
2021/10/27 14:09:46;;;;;;;0.20;0.20;;;;;;;;;;5043533;28;20879;-65
2021/10/27 14:15:03;;;;;;;0.30;0.30;;;;;;;;;;5054112;28;20866;-65
2021/10/27 14:20:24;;;;;;;0.30;0.30;;;;;;;;;;5054018;28;20495;-65
2021/10/27 15:30:24;;;;;;;0.30;0.30;;;;;;;;;;5032626;28;20409;-65
2021/10/27 15:33:05;;;;;;;0.30;0.30;;;;;;;;;;5032318;28;20848;-65
2021/10/27 15:51:28;;;;;;;0.30;0.30;;;;;;;;;;5032317;28;20606;-65
2021/10/27 15:53:55;;;;;;;0.40;0.40;;;;;;;;;;5032214;28;20197;-66
2021/10/27 15:56:22;;;;;;;0.30;0.30;;;;;;;;;;5032266;28;20165;-66
2021/10/27 15:58:48;;;;;;;0.30;0.30;;;;;;;;;;5031094;28;20173;-65
2021/10/27 16:01:14;;;;;;;0.30;0.30;;;;;;;;;;5032075;28;20165;-65
2021/10/27 16:03:40;;;;;;;0.40;0.40;;;;;;;;;;5032188;28;20227;-65
2021/10/27 16:06:07;;;;;;;0.40;0.40;;;;;;;;;;5032157;28;20408;-65
2021/10/27 16:08:35;;;;;;;0.30;0.30;;;;;;;;;;5031998;28;20246;-65
2021/10/27 16:11:01;;;;;;;0.30;0.30;;;;;;;;;;5031962;28;20759;-65
2021/10/27 16:13:27;;;;;;;0.40;0.40;;;;;;;;;;5031820;28;20165;-65
2021/10/27 16:15:57;;;;;;;0.30;0.30;;;;;;;;;;5030693;28;20551;-65
2021/10/27 16:18:24;;;;;;;0.40;0.40;;;;;;;;;;5031794;28;20700;-65
2021/10/27 16:20:51;;;;;;;0.40;0.40;;;;;;;;;;5031680;28;20256;-65
2021/10/27 16:23:17;;;;;;;0.30;0.30;;;;;;;;;;5032091;28;20177;-65
2021/10/27 16:25:44;;;;;;;0.40;0.40;;;;;;;;;;5031790;28;20247;-65
2021/10/27 16:28:10;;;;;;;0.40;0.40;;;;;;;;;;5031877;28;20208;-65
2021/10/27 16:30:37;;;;;;;0.30;0.30;;;;;;;;;;5031775;28;20179;-65
2021/10/27 16:33:03;;;;;;;0.40;0.40;;;;;;;;;;5031884;28;20220;-65
2021/10/27 16:35:29;;;;;;;0.40;0.40;;;;;;;;;;5031595;28;20545;-65
2021/10/27 16:37:55;;;;;;;0.40;0.40;;;;;;;;;;5031748;28;20192;-66
2021/10/27 16:40:22;;;;;;;0.40;0.40;;;;;;;;;;5031555;28;20608;-66
2021/10/27 16:42:48;;;;;;;0.40;0.40;;;;;;;;;;5031755;28;20188;-65
2021/10/27 16:45:16;;;;;;;0.40;0.40;;;;;;;;;;5031610;28;20195;-65
2021/10/27 16:47:42;;;;;;;0.40;0.40;;;;;;;;;;5031713;28;20219;-65
2021/10/27 16:50:08;;;;;;;0.40;0.40;;;;;;;;;;5031307;28;20216;-65
2021/10/27 16:52:35;;;;;;;0.40;0.40;;;;;;;;;;5031448;28;20411;-65
2021/10/27 16:55:03;;;;;;;0.40;0.40;;;;;;;;;;5031401;28;20279;-65
2021/10/27 16:57:29;;;;;;;0.30;0.30;;;;;;;;;;5031582;28;20165;-65
2021/10/27 16:59:55;;;;;;;0.40;0.40;;;;;;;;;;5031379;28;20592;-65
2021/10/27 17:02:21;;;;;;;0.30;0.30;;;;;;;;;;5031260;28;20177;-65
2021/10/27 17:04:47;;;;;;;0.40;0.40;;;;;;;;;;5031264;28;20243;-65
2021/10/27 17:07:14;;;;;;;0.40;0.40;;;;;;;;;;5031354;28;20602;-65
2021/10/27 17:09:40;;;;;;;0.40;0.40;;;;;;;;;;5031443;28;20499;-65
2021/10/27 17:12:07;;;;;;;0.30;0.30;;;;;;;;;;5031176;28;20208;-65
2021/10/27 17:14:34;;;;;;;0.30;0.30;;;;;;;;;;5031274;28;20423;-65
2021/10/27 17:17:00;;;;;;;0.40;0.40;;;;;;;;;;5031388;28;20180;-65
2021/10/27 17:19:26;;;;;;;0.30;0.30;;;;;;;;;;5031379;28;20183;-65
2021/10/27 17:21:52;;;;;;;0.40;0.40;;;;;;;;;;5031185;28;20543;-65
2021/10/27 17:24:18;;;;;;;0.40;0.40;;;;;;;;;;5031141;28;20432;-65
2021/10/27 17:26:45;;;;;;;0.40;0.40;;;;;;;;;;5031186;28;20447;-65
2021/10/27 17:29:11;;;;;;;0.30;0.30;;;;;;;;;;5031342;28;20643;-65
2021/10/27 17:31:37;;;;;;;0.30;0.30;;;;;;;;;;5032666;28;20192;-65
2021/10/27 17:34:03;;;;;;;0.40;0.40;;;;;;;;;;5034855;28;20197;-65
2021/10/27 17:36:29;;;;;;;0.40;0.40;;;;;;;;;;5035298;28;20431;-65
2021/10/27 17:38:55;;;;;;;0.40;0.40;;;;;;;;;;5034964;28;20173;-65
2021/10/27 17:41:24;;;;;;;0.30;0.30;;;;;;;;;;5034717;28;20930;-66
2021/10/27 17:43:52;;;;;;;0.40;0.40;;;;;;;;;;5034886;28;20854;-65
2021/10/27 17:46:20;;;;;;;0.40;0.40;;;;;;;;;;5035206;28;20176;-65
2021/10/27 17:48:58;;;;;;;0.40;0.40;;;;;;;;;;5034833;28;20200;-65
2021/10/27 17:51:26;;;;;;;0.40;0.40;;;;;;;;;;5034519;28;20260;-65
2021/10/27 17:59:22;;;;;;;0.40;0.40;;;;;;;;;;5034586;28;20190;-65
2021/10/27 18:01:49;;;;;;;0.40;0.40;;;;;;;;;;5034319;28;20227;-65
2021/10/27 18:04:15;;;;;;;0.40;0.40;;;;;;;;;;5034456;28;20203;-65
2021/10/27 18:06:41;;;;;;;0.40;0.40;;;;;;;;;;5034415;28;20232;-65
2021/10/27 18:09:11;;;;;;;0.40;0.40;;;;;;;;;;5034366;28;20164;-65
2021/10/27 18:11:38;;;;;;;0.40;0.40;;;;;;;;;;5034263;28;20180;-65
2021/10/27 18:14:07;;;;;;;0.40;0.40;;;;;;;;;;5034157;28;20230;-65
2021/10/27 18:16:51;;;;;;;0.40;0.40;;;;;;;;;;5034256;28;20180;-65
2021/10/27 18:19:24;;;;;;;0.40;0.40;;;;;;;;;;5034415;28;20179;-65
2021/10/27 18:21:56;;;;;;;0.35;0.35;;;;;;;;;;5034206;28;20264;-65
2021/10/27 18:40:37;;;;;;;0.40;0.40;;;;;;;;;;5033492;28;20180;-65
2021/10/27 18:43:12;;;;;;;0.40;0.40;;;;;;;;;;5033521;28;20250;-65
2021/10/27 18:45:43;;;;;;;0.38;0.38;;;;;;;;;;5033800;28;20200;-65
2021/10/27 18:48:11;;;;;;;0.40;0.40;;;;;;;;;;5033456;28;20703;-65
2021/10/27 18:50:49;;;;;;;0.40;0.40;;;;;;;;;;5032430;28;20169;-65
2021/10/27 18:53:23;;;;;;;0.40;0.40;;;;;;;;;;5051173;28;20200;-65
2021/10/27 18:58:33;;;;;;;0.38;0.38;;;;;;;;;;5033583;28;20660;-65
2021/10/27 19:11:44;;;;;;;0.40;0.40;;;;;;;;;;5031880;28;20183;-66
2021/10/27 19:14:18;;;;;;;0.40;0.40;;;;;;;;;;5032677;28;20208;-65
2021/10/27 19:16:45;;;;;;;0.38;0.38;;;;;;;;;;5031368;28;20183;-67
2021/10/27 19:19:11;;;;;;;0.40;0.40;;;;;;;;;;5032691;28;20547;-66
2021/10/27 19:21:38;;;;;;;0.40;0.40;;;;;;;;;;5032348;28;20173;-67
2021/10/27 19:24:05;;;;;;;0.40;0.40;;;;;;;;;;5032402;28;20260;-65
2021/10/27 19:26:37;;;;;;;0.40;0.40;;;;;;;;;;5032286;28;20196;-65
2021/10/27 19:29:21;;;;;;;0.45;0.45;;;;;;;;;;5032634;28;20184;-65
2021/10/27 19:31:58;;;;;;;0.40;0.40;;;;;;;;;;5029610;28;20242;-65
2021/10/27 20:07:30;;;;;;;0.30;0.30;;;;;;;;;;5033087;28;20567;-66
2021/10/27 20:53:00;;;;;;;0.40;0.40;;;;;;;;;;5031748;28;20180;-65
2021/10/27 20:55:30;;;;;;;0.50;0.50;;;;;;;;;;5031490;28;20327;-66
2021/10/27 21:00:38;;;;;;;0.40;0.40;;;;;;;;;;5031479;28;20227;-66
2021/10/27 21:13:59;;;;;;;0.40;0.40;;;;;;;;;;5035534;28;20243;-65
2021/10/27 21:16:26;;;;;;;0.40;0.40;;;;;;;;;;5035454;28;20181;-65
2021/10/27 21:18:52;;;;;;;0.40;0.40;;;;;;;;;;5035283;28;20410;-65
2021/10/27 21:21:18;;;;;;;0.33;0.33;;;;;;;;;;5035222;28;20191;-65
2021/10/27 21:23:44;;;;;;;0.50;0.50;;;;;;;;;;5035256;28;20439;-65
2021/10/27 21:26:10;;;;;;;0.40;0.40;;;;;;;;;;5035300;28;20196;-66
2021/10/27 21:28:54;;;;;;;0.40;0.40;;;;;;;;;;5035120;28;20232;-65
2021/10/27 21:44:54;;;;;;;0.40;0.40;;;;;;;;;;5035087;28;20684;-66